This is the latest recevied weather packets stored in our database for station/object WA9AFM. If no packets are shown the sender has not sent any weather packets the latest 10 day(s).
| Time | Temp. | Humidity | Pressure | Rain* | Wind** | Luminosity | Snow |
|---|---|---|---|---|---|---|---|
| 1787676504 | 36.11° C | 34% | 1007.3 hPa | 0 mm | - | - | - |
| 1787675606 | 35.56° C | 34% | 1007.5 hPa | 0 mm | - | - | - |
| 1787674705 | 35° C | 36% | 1007.6 hPa | 0 mm | - | - | - |
| 1787673804 | 34.44° C | 37% | 1007.7 hPa | 0 mm | - | - | - |
| 1787672905 | 33.89° C | 38% | 1007.6 hPa | 0 mm | - | - | - |
| 1787672006 | 33.33° C | 38% | 1007.5 hPa | 0 mm | - | - | - |
| 1787671105 | 32.78° C | 41% | 1007.5 hPa | 0 mm | - | - | - |
| 1787670204 | 32.78° C | 41% | 1007.3 hPa | 0 mm | - | - | - |
| 1787669305 | 31.67° C | 43% | 1007.5 hPa | 0 mm | - | - | - |
| 1787668405 | 31.67° C | 43% | 1007.3 hPa | 0 mm | - | - | - |
| 1787666605 | 30° C | 50% | 1007.2 hPa | 0 mm | - | - | - |
| 1787665704 | 28.33° C | 57% | 1007.2 hPa | 0 mm | - | - | - |
| 1787664805 | 27.22° C | 61% | 1007 hPa | 0 mm | - | - | - |
| 1787663904 | 26.67° C | 63% | 1006.8 hPa | 0 mm | - | - | - |
| 1787663005 | 26.11° C | 64% | 1006.7 hPa | 0 mm | - | - | - |
| 1787662104 | 25.56° C | 66% | 1006.5 hPa | 0 mm | - | - | - |
| 1787661205 | 25° C | 66% | 1006.5 hPa | 0 mm | - | - | - |
| 1787660304 | 25° C | 68% | 1006.3 hPa | 0 mm | - | - | - |
| 1787659406 | 25° C | 67% | 1006.4 hPa | 0 mm | - | - | - |
| 1787658505 | 25.56° C | 66% | 1006.4 hPa | 0 mm | - | - | - |
| 1787657605 | 25.56° C | 66% | 1006.1 hPa | 0 mm | - | - | - |
| 1787656704 | 25.56° C | 69% | 1005.8 hPa | 0 mm | - | - | - |
| 1787655806 | 25.56° C | 69% | 1005.9 hPa | 0 mm | - | - | - |
| 1787654905 | 26.11° C | 70% | 1006 hPa | 0 mm | - | - | - |
| 1787654004 | 26.11° C | 71% | 1006 hPa | 0 mm | - | - | - |
* Rain latest hour (hover to see other rain measurements)
** Current wind speed in m/s (hover to see current wind gust speed)